createdAt,value
2019-05-10T00:00:44.522Z,14.00
2019-05-10T00:03:31.547Z,12.37
2019-05-10T00:06:18.519Z,10.40
2019-05-10T00:08:47.163Z,15.40
2019-05-10T00:11:29.407Z,12.95
2019-05-10T00:14:16.460Z,10.48
2019-05-10T00:16:47.461Z,13.13
2019-05-10T00:19:17.315Z,12.28
2019-05-10T00:21:46.862Z,11.38
2019-05-10T00:24:16.501Z,12.82
2019-05-10T00:26:46.006Z,12.58
2019-05-10T00:29:15.560Z,12.80
2019-05-10T00:31:45.123Z,17.30
2019-05-10T00:34:14.911Z,16.15
2019-05-10T00:36:47.247Z,12.35
2019-05-10T00:39:19.517Z,15.98
2019-05-10T00:41:49.019Z,12.78
2019-05-10T00:44:20.365Z,17.27
2019-05-10T00:46:51.324Z,12.15
2019-05-10T00:49:21.213Z,13.80
2019-05-10T00:51:56.123Z,16.37
2019-05-10T00:54:25.779Z,15.18
2019-05-10T00:59:52.333Z,15.50
2019-05-10T01:02:22.084Z,15.35
2019-05-10T01:04:52.498Z,8.50
2019-05-10T01:07:22.229Z,10.03
2019-05-10T01:09:51.752Z,13.65
2019-05-10T01:12:21.492Z,18.55
2019-05-10T01:14:51.183Z,14.43
2019-05-10T01:17:20.703Z,12.68
2019-05-10T01:19:50.435Z,15.85
2019-05-10T01:22:20.147Z,10.35
2019-05-10T01:24:49.800Z,9.15
2019-05-10T01:27:19.390Z,15.53
2019-05-10T01:29:49.034Z,14.45
2019-05-10T01:32:18.544Z,14.55
2019-05-10T01:34:48.130Z,11.08
2019-05-10T01:37:17.713Z,10.88
2019-05-10T01:39:47.267Z,7.53
2019-05-10T01:42:16.795Z,12.13
2019-05-10T01:44:46.334Z,9.30
2019-05-10T01:47:15.856Z,11.50
2019-05-10T01:49:45.444Z,13.48
2019-05-10T01:52:15.534Z,9.60
2019-05-10T01:54:45.085Z,16.37
2019-05-10T01:57:14.706Z,16.67
2019-05-10T01:59:44.541Z,12.63
2019-05-10T02:02:14.441Z,16.60
2019-05-10T02:04:44.105Z,14.07
2019-05-10T02:07:13.991Z,16.30
2019-05-10T02:09:43.610Z,13.45
2019-05-10T02:12:13.209Z,12.23
2019-05-10T02:14:43.067Z,12.85
2019-05-10T02:17:12.679Z,11.63
2019-05-10T02:19:42.266Z,11.48
2019-05-10T02:22:11.814Z,20.27
2019-05-10T02:24:41.317Z,15.20
2019-05-10T02:27:11.025Z,8.85
2019-05-10T02:29:40.558Z,13.05
2019-05-10T02:32:10.118Z,9.40
2019-05-10T02:34:39.632Z,11.25
2019-05-10T02:37:09.282Z,11.03
2019-05-10T02:39:40.880Z,18.77
2019-05-10T02:42:10.104Z,17.25
2019-05-10T02:44:39.636Z,15.38
2019-05-10T02:47:09.218Z,15.58
2019-05-10T02:49:39.267Z,17.55
2019-05-10T02:52:08.839Z,18.10
2019-05-10T02:54:38.436Z,18.90
2019-05-10T02:57:09.013Z,14.85
2019-05-10T02:59:38.929Z,17.52
2019-05-10T03:02:08.405Z,17.20
2019-05-10T03:04:38.824Z,13.28
2019-05-10T03:07:08.847Z,15.25
2019-05-10T03:09:38.687Z,24.47
2019-05-10T03:12:27.178Z,19.00
2019-05-10T03:14:59.262Z,12.30
2019-05-10T03:17:29.730Z,17.23
2019-05-10T03:20:01.968Z,16.60
2019-05-10T03:22:35.132Z,15.98
2019-05-10T03:25:06.102Z,16.65
2019-05-10T03:27:37.008Z,24.50
2019-05-10T03:30:06.923Z,18.62
2019-05-10T03:32:39.659Z,15.65
2019-05-10T03:35:10.702Z,17.60
2019-05-10T03:37:40.930Z,16.32
2019-05-10T03:40:10.793Z,13.78
2019-05-10T03:42:41.210Z,19.45
2019-05-10T03:45:11.410Z,16.07
2019-05-10T03:47:43.017Z,19.48
2019-05-10T03:50:13.281Z,14.15
2019-05-10T03:52:51.701Z,10.28
2019-05-10T03:55:18.261Z,14.13
2019-05-10T03:57:48.039Z,14.85
2019-05-10T04:00:18.221Z,17.37
2019-05-10T04:02:49.526Z,18.77
2019-05-10T04:05:23.780Z,13.50
2019-05-10T04:07:54.173Z,17.70
2019-05-10T04:10:24.687Z,16.80
2019-05-10T04:12:58.968Z,13.38
2019-05-10T04:15:28.808Z,13.60
2019-05-10T04:18:23.448Z,18.73
2019-05-10T04:21:12.536Z,18.37
2019-05-10T04:24:19.048Z,13.13
2019-05-10T04:27:08.227Z,16.12
2019-05-10T04:29:57.633Z,17.30
2019-05-10T04:32:56.136Z,13.98
2019-05-10T04:36:12.400Z,20.85
2019-05-10T04:38:42.006Z,19.92
2019-05-10T04:41:33.253Z,16.50
2019-05-10T04:51:19.023Z,14.80
2019-05-10T04:53:52.161Z,18.40
2019-05-10T04:56:30.118Z,26.30
2019-05-10T05:02:24.450Z,19.07
2019-05-10T05:04:54.874Z,24.23
2019-05-10T05:07:47.802Z,13.62
2019-05-10T05:11:05.759Z,19.62
2019-05-10T05:13:36.023Z,17.98
2019-05-10T05:19:19.508Z,13.70
2019-05-10T05:21:54.919Z,16.10
2019-05-10T05:24:25.146Z,17.85
2019-05-10T05:26:57.527Z,12.78
2019-05-10T05:29:36.135Z,14.73
2019-05-10T05:32:13.474Z,16.77
2019-05-10T05:34:43.273Z,14.20
2019-05-10T05:37:18.983Z,17.80
2019-05-10T05:39:44.332Z,15.38
2019-05-10T05:42:14.217Z,16.10
2019-05-10T05:44:43.880Z,13.18
2019-05-10T05:47:13.533Z,12.20
2019-05-10T05:49:43.235Z,16.20
2019-05-10T05:52:13.305Z,16.30
2019-05-10T05:54:45.905Z,21.42
2019-05-10T05:57:15.414Z,14.75
2019-05-10T05:59:48.634Z,17.77
2019-05-10T06:02:16.143Z,16.50
2019-05-10T06:04:46.213Z,18.55
2019-05-10T06:07:17.024Z,17.95
2019-05-10T06:09:46.698Z,23.98
2019-05-10T06:12:16.231Z,13.72
2019-05-10T06:14:49.951Z,19.17
2019-05-10T06:17:17.027Z,17.52
2019-05-10T06:19:46.546Z,19.20
2019-05-10T06:22:16.285Z,13.40
2019-05-10T06:24:46.788Z,15.85
2019-05-10T06:27:16.913Z,15.78
2019-05-10T06:29:46.467Z,10.32
2019-05-10T06:32:16.007Z,11.20
2019-05-10T06:34:45.652Z,13.22
2019-05-10T06:37:15.206Z,11.90
2019-05-10T06:39:45.291Z,12.33
2019-05-10T06:42:14.775Z,13.75
2019-05-10T06:44:44.563Z,11.80
2019-05-10T06:47:14.125Z,13.28
2019-05-10T06:49:50.708Z,9.43
2019-05-10T06:52:16.500Z,10.00
2019-05-10T06:54:46.405Z,12.73
2019-05-10T06:57:17.638Z,10.72
2019-05-10T06:59:47.057Z,8.88
2019-05-10T07:02:19.949Z,8.03
2019-05-10T07:04:48.746Z,7.10
2019-05-10T07:07:33.101Z,6.47
2019-05-10T07:10:13.184Z,7.15
2019-05-10T07:12:20.763Z,9.95
2019-05-10T07:14:50.307Z,6.22
2019-05-10T07:17:19.810Z,9.50
2019-05-10T07:19:53.629Z,5.75
2019-05-10T07:22:21.895Z,4.55
2019-05-10T07:24:57.241Z,4.97
2019-05-10T07:27:23.078Z,3.77
2019-05-10T07:29:52.658Z,8.88
2019-05-10T07:32:24.445Z,5.20
2019-05-10T07:34:58.954Z,9.23
2019-05-10T07:37:24.607Z,3.85
2019-05-10T07:39:54.175Z,6.15
2019-05-10T07:42:23.795Z,4.37
2019-05-10T07:44:53.746Z,5.87
2019-05-10T07:47:24.036Z,12.37
2019-05-10T07:49:55.371Z,5.58
2019-05-10T07:52:26.745Z,5.83
2019-05-10T07:54:56.292Z,7.45
2019-05-10T07:57:27.043Z,11.08
2019-05-10T07:59:57.679Z,6.40
2019-05-10T08:02:27.891Z,4.75
2019-05-10T08:04:58.436Z,4.85
2019-05-10T08:07:29.415Z,5.95
2019-05-10T08:09:59.539Z,2.75
2019-05-10T08:12:29.130Z,4.28
2019-05-10T08:14:59.066Z,4.20
2019-05-10T08:17:29.110Z,5.20
2019-05-10T08:19:58.775Z,5.67
2019-05-10T08:22:32.765Z,3.77
2019-05-10T08:25:02.217Z,5.47
2019-05-10T08:27:32.458Z,3.35
2019-05-10T08:30:20.762Z,5.00
2019-05-10T08:32:34.919Z,7.22
2019-05-10T08:35:05.425Z,5.22
2019-05-10T08:37:37.723Z,7.08
2019-05-10T08:40:06.532Z,5.37
2019-05-10T08:42:45.214Z,3.15
2019-05-10T08:45:09.236Z,4.85
2019-05-10T08:47:38.435Z,5.80
2019-05-10T08:50:22.381Z,10.18
2019-05-10T08:52:39.348Z,5.65
2019-05-10T08:55:12.092Z,3.55
2019-05-10T08:57:44.411Z,2.80
2019-05-10T09:00:13.071Z,2.50
2019-05-10T09:02:42.921Z,3.10
2019-05-10T09:05:12.716Z,4.90
2019-05-10T09:07:43.048Z,4.45
2019-05-10T09:10:13.636Z,4.72
2019-05-10T09:12:51.096Z,3.77
2019-05-10T09:15:14.716Z,2.80
2019-05-10T09:17:44.292Z,6.83
2019-05-10T09:20:20.611Z,4.58
2019-05-10T09:22:45.848Z,4.70
2019-05-10T09:25:20.147Z,1.75
2019-05-10T09:27:47.095Z,7.62
2019-05-10T09:30:29.553Z,2.47
2019-05-10T09:33:08.343Z,2.95
2019-05-10T09:35:33.000Z,3.35
2019-05-10T09:38:02.546Z,5.78
2019-05-10T09:40:32.687Z,4.17
2019-05-10T09:43:05.166Z,3.35
2019-05-10T09:45:34.486Z,2.20
2019-05-10T09:48:04.095Z,3.40
2019-05-10T09:50:41.325Z,2.83
2019-05-10T09:53:06.733Z,9.63
2019-05-10T09:55:36.959Z,6.00
2019-05-10T09:58:08.547Z,4.27
2019-05-10T10:00:38.181Z,5.83
2019-05-10T10:03:08.427Z,3.08
2019-05-10T10:05:40.253Z,4.05
2019-05-10T10:08:10.966Z,6.65
2019-05-10T10:10:40.257Z,5.62
2019-05-10T10:13:39.475Z,5.10
2019-05-10T10:16:04.040Z,11.78
2019-05-10T10:18:31.298Z,3.12
2019-05-10T10:21:00.782Z,3.90
2019-05-10T10:23:34.789Z,4.35
2019-05-10T10:26:03.488Z,5.58
2019-05-10T10:28:36.432Z,3.55
2019-05-10T10:31:05.378Z,3.27
2019-05-10T10:33:37.771Z,2.95
2019-05-10T10:36:10.301Z,5.15
2019-05-10T10:38:45.310Z,4.72
2019-05-10T10:41:08.953Z,4.85
2019-05-10T10:43:38.543Z,3.70
2019-05-10T10:46:11.934Z,7.17
2019-05-10T10:48:43.507Z,5.08
2019-05-10T10:51:10.960Z,5.80
2019-05-10T10:53:40.448Z,5.20
2019-05-10T10:56:10.115Z,6.10
2019-05-10T10:58:39.705Z,13.72
2019-05-10T11:01:20.067Z,8.65
2019-05-10T11:03:40.963Z,6.25
2019-05-10T11:06:10.694Z,13.98
2019-05-10T11:08:41.257Z,11.15
2019-05-10T11:11:10.903Z,7.95
2019-05-10T11:13:44.862Z,7.75
2019-05-10T11:16:15.793Z,6.85
2019-05-10T11:18:42.960Z,4.17
2019-05-10T11:21:13.809Z,7.03
2019-05-10T11:23:43.468Z,5.45
2019-05-10T11:26:13.152Z,8.40
2019-05-10T11:28:44.052Z,8.63
2019-05-10T11:31:14.173Z,4.27
2019-05-10T11:33:47.237Z,4.33
2019-05-10T11:36:14.915Z,3.90
2019-05-10T11:38:47.175Z,7.60
2019-05-10T11:41:21.246Z,2.90
2019-05-10T11:43:47.028Z,5.27
2019-05-10T11:46:16.860Z,5.17
2019-05-10T11:48:46.320Z,4.12
2019-05-10T11:56:23.669Z,3.25
2019-05-10T11:58:54.896Z,4.35
2019-05-10T11:59:04.703Z,7.87
2019-05-10T11:59:05.051Z,2.87
2019-05-10T12:01:22.254Z,7.42
2019-05-10T12:03:52.203Z,4.50
2019-05-10T12:06:21.865Z,3.67
2019-05-10T12:08:56.871Z,7.03
2019-05-10T12:11:33.001Z,11.63
2019-05-10T12:14:23.220Z,5.65
2019-05-10T12:17:47.680Z,5.87
2019-05-10T12:21:09.639Z,7.30
2019-05-10T12:23:50.202Z,5.03
2019-05-10T12:27:12.979Z,4.20
2019-05-10T12:29:17.187Z,5.40
2019-05-10T12:32:07.440Z,8.40
2019-05-10T12:34:37.157Z,6.87
2019-05-10T12:37:14.003Z,2.97
2019-05-10T12:39:45.630Z,3.67
2019-05-10T12:42:17.938Z,3.37
2019-05-10T12:44:57.637Z,4.97
2019-05-10T12:47:52.078Z,3.83
2019-05-10T12:50:44.036Z,3.63
2019-05-10T12:53:15.477Z,4.33
2019-05-10T12:55:52.868Z,4.80
2019-05-10T12:58:23.154Z,3.30
2019-05-10T13:00:54.290Z,3.30
2019-05-10T13:03:54.223Z,5.43
2019-05-10T13:06:24.604Z,6.33
2019-05-10T13:08:58.302Z,7.67
2019-05-10T13:11:27.416Z,7.80
2019-05-10T13:14:01.073Z,4.13
2019-05-10T13:17:43.809Z,4.40
2019-05-10T13:21:00.211Z,5.90
2019-05-10T13:23:38.680Z,3.13
2019-05-10T13:29:08.087Z,3.63
2019-05-10T13:31:57.138Z,3.30
2019-05-10T13:34:39.403Z,7.83
2019-05-10T13:40:25.610Z,5.90
2019-05-10T13:43:17.287Z,3.57
2019-05-10T13:46:39.255Z,4.77
2019-05-10T13:49:09.662Z,8.43
2019-05-10T13:51:58.411Z,6.47
2019-05-10T13:57:58.379Z,5.40
2019-05-10T14:00:33.433Z,6.33
2019-05-10T14:03:10.909Z,6.37
2019-05-10T14:05:39.439Z,6.03
2019-05-10T14:08:07.724Z,5.70
2019-05-10T14:11:10.963Z,4.30
2019-05-10T14:13:46.512Z,2.77
2019-05-10T14:16:38.288Z,8.20
2019-05-10T14:19:37.035Z,6.13
2019-05-10T14:22:36.025Z,7.53
2019-05-10T14:25:06.151Z,7.57
2019-05-10T14:27:38.086Z,6.33
2019-05-10T14:30:13.383Z,5.13
2019-05-10T14:32:48.765Z,5.40
2019-05-10T14:35:22.592Z,7.20
2019-05-10T14:37:52.653Z,6.83
2019-05-10T14:43:51.425Z,3.80
2019-05-10T14:50:26.054Z,3.67
2019-05-10T14:52:52.909Z,6.20
2019-05-10T14:55:33.945Z,6.17
2019-05-10T14:58:20.937Z,3.63
2019-05-10T15:00:50.503Z,6.07
2019-05-10T15:03:20.034Z,3.73
2019-05-10T15:05:55.310Z,5.80
2019-05-10T15:08:20.815Z,4.17
2019-05-10T15:10:50.809Z,6.60
2019-05-10T15:13:25.946Z,5.10
2019-05-10T15:15:51.632Z,6.93
2019-05-10T15:18:21.400Z,4.53
2019-05-10T15:20:50.897Z,8.40
2019-05-10T15:23:20.451Z,5.23
2019-05-10T15:26:14.404Z,5.60
2019-05-10T15:28:46.608Z,4.50
2019-05-10T15:31:16.074Z,13.80
2019-05-10T15:33:46.572Z,8.30
2019-05-10T15:36:16.047Z,7.30
2019-05-10T15:38:57.469Z,4.57
2019-05-10T15:41:28.929Z,5.10
2019-05-10T15:43:58.634Z,4.77
2019-05-10T15:46:38.715Z,9.27
2019-05-10T15:49:13.473Z,4.97
2019-05-10T15:52:24.377Z,7.83
2019-05-10T15:54:45.056Z,8.00
2019-05-10T15:57:14.627Z,9.30
2019-05-10T15:59:41.934Z,5.30
2019-05-10T16:02:11.532Z,10.43
2019-05-10T16:04:41.099Z,4.47
2019-05-10T16:07:16.654Z,4.30
2019-05-10T16:09:49.905Z,4.97
2019-05-10T16:12:20.594Z,8.83
2019-05-10T16:14:50.206Z,7.67
2019-05-10T16:17:23.784Z,8.90
2019-05-10T16:20:00.208Z,4.20
2019-05-10T16:22:37.103Z,5.60
2019-05-10T16:25:08.261Z,3.57
2019-05-10T16:27:44.534Z,6.70
2019-05-10T16:30:11.878Z,4.47
2019-05-10T16:33:01.433Z,5.40
2019-05-10T16:35:38.685Z,7.63
2019-05-10T16:38:03.016Z,6.80
2019-05-10T16:41:05.633Z,4.57
2019-05-10T16:43:51.909Z,17.90
2019-05-10T16:46:21.264Z,5.03
2019-05-10T16:48:51.513Z,5.13
2019-05-10T16:51:59.675Z,7.07
2019-05-10T16:54:49.823Z,12.97
2019-05-10T16:57:19.506Z,4.97
2019-05-10T16:59:49.140Z,3.83
2019-05-10T17:02:18.656Z,5.00
2019-05-10T17:04:48.192Z,5.83
2019-05-10T17:07:18.812Z,8.00
2019-05-10T17:09:54.676Z,8.27
2019-05-10T17:12:27.500Z,9.17
2019-05-10T17:14:56.377Z,7.17
2019-05-10T17:17:31.371Z,8.57
2019-05-10T17:19:58.734Z,9.33
2019-05-10T17:22:28.390Z,7.80
2019-05-10T17:25:03.437Z,8.47
2019-05-10T17:27:29.215Z,8.67
2019-05-10T17:29:58.872Z,7.93
2019-05-10T17:32:28.433Z,6.60
2019-05-10T17:34:59.098Z,18.37
2019-05-10T17:37:35.148Z,9.00
2019-05-10T17:40:04.727Z,8.13
2019-05-10T17:42:35.570Z,7.60
2019-05-10T17:45:04.494Z,11.50
2019-05-10T17:47:34.185Z,5.93
2019-05-10T17:50:03.888Z,6.70
2019-05-10T17:52:33.435Z,9.90
2019-05-10T17:55:03.141Z,7.53
2019-05-10T17:57:32.867Z,9.13
2019-05-10T18:00:02.713Z,8.35
2019-05-10T18:02:32.471Z,10.37
2019-05-10T18:05:06.216Z,7.78
2019-05-10T18:07:33.456Z,8.18
2019-05-10T18:10:03.116Z,8.15
2019-05-10T18:12:32.744Z,7.37
2019-05-10T18:15:21.435Z,8.07
2019-05-10T18:17:51.040Z,9.87
2019-05-10T18:20:20.958Z,6.75
2019-05-10T18:22:50.466Z,11.78
2019-05-10T18:25:22.214Z,9.43
2019-05-10T18:27:51.307Z,13.32
2019-05-10T18:30:21.990Z,10.65
2019-05-10T18:32:51.564Z,10.00
2019-05-10T18:35:21.539Z,7.42
2019-05-10T18:37:53.563Z,7.12
2019-05-10T18:40:25.392Z,9.33
2019-05-10T18:42:57.728Z,10.58
2019-05-10T18:45:28.738Z,7.83
2019-05-10T18:47:56.675Z,8.05
2019-05-10T18:50:26.192Z,7.78
2019-05-10T18:52:55.834Z,8.43
2019-05-10T18:55:25.615Z,14.30
2019-05-10T18:57:55.156Z,9.43
2019-05-10T19:00:25.314Z,6.87
2019-05-10T19:02:57.053Z,7.55
2019-05-10T19:05:31.615Z,7.65
2019-05-10T19:08:04.328Z,8.50
2019-05-10T19:10:28.970Z,8.65
2019-05-10T19:13:01.367Z,10.00
2019-05-10T19:15:30.066Z,12.82
2019-05-10T19:17:59.646Z,11.70
2019-05-10T19:20:29.179Z,11.30
2019-05-10T19:22:59.005Z,8.25
2019-05-10T19:25:28.992Z,8.70
2019-05-10T19:27:58.656Z,9.95
2019-05-10T19:30:28.441Z,8.48
2019-05-10T19:33:17.369Z,8.75
2019-05-10T19:35:47.373Z,9.38
2019-05-10T19:38:20.264Z,6.72
2019-05-10T19:40:50.140Z,8.50
2019-05-10T19:43:24.033Z,8.68
2019-05-10T19:45:59.708Z,12.05
2019-05-10T19:48:35.669Z,10.03
2019-05-10T19:51:09.596Z,8.95
2019-05-10T19:53:41.513Z,12.35
2019-05-10T19:56:08.115Z,10.85
2019-05-10T19:58:38.364Z,9.00
2019-05-10T20:01:09.478Z,13.43
2019-05-10T20:03:41.084Z,11.97
2019-05-10T20:06:10.690Z,10.75
2019-05-10T20:08:40.590Z,9.93
2019-05-10T20:11:10.286Z,11.40
2019-05-10T20:13:39.939Z,14.03
2019-05-10T20:16:10.165Z,10.98
2019-05-10T20:18:39.896Z,11.88
2019-05-10T20:21:10.747Z,15.13
2019-05-10T20:24:38.575Z,12.43
2019-05-10T20:26:39.836Z,13.38
2019-05-10T20:29:11.731Z,11.80
2019-05-10T20:32:02.596Z,16.62
2019-05-10T20:34:51.186Z,16.35
2019-05-10T20:37:24.680Z,17.30
2019-05-10T20:39:54.521Z,15.80
2019-05-10T20:42:24.320Z,20.80
2019-05-10T20:45:06.850Z,18.27
2019-05-10T20:47:25.437Z,22.05
2019-05-10T20:49:57.815Z,20.97
2019-05-10T20:52:27.598Z,18.65
2019-05-10T20:55:03.515Z,24.77
2019-05-10T20:57:33.262Z,26.20
2019-05-10T21:00:02.987Z,32.78
2019-05-10T21:02:34.973Z,25.35
2019-05-10T21:05:26.992Z,25.10
2019-05-10T21:08:16.106Z,31.95
2019-05-10T21:10:34.503Z,21.40
2019-05-10T21:13:10.255Z,23.65
2019-05-10T21:15:40.003Z,22.75
2019-05-10T21:18:09.845Z,22.30
2019-05-10T21:20:39.380Z,25.77
2019-05-10T21:23:09.549Z,24.57
2019-05-10T21:25:46.587Z,21.90
2019-05-10T21:28:16.825Z,15.48
2019-05-10T21:30:49.317Z,13.58
2019-05-10T21:33:18.842Z,18.48
2019-05-10T21:35:50.209Z,17.62
2019-05-10T21:38:31.923Z,14.18
2019-05-10T21:40:51.428Z,15.43
2019-05-10T21:43:25.667Z,19.80
2019-05-10T21:45:55.257Z,14.07
2019-05-10T21:48:26.770Z,11.90
2019-05-10T21:50:56.124Z,13.48
2019-05-10T21:53:25.756Z,16.30
2019-05-10T21:55:55.555Z,14.58
2019-05-10T21:58:25.270Z,15.35
2019-05-10T22:00:55.057Z,19.77
2019-05-10T22:03:24.801Z,17.57
2019-05-10T22:05:54.304Z,13.85
2019-05-10T22:08:23.914Z,15.53
2019-05-10T22:10:53.637Z,14.85
2019-05-10T22:13:23.308Z,16.95
2019-05-10T22:15:52.915Z,19.05
2019-05-10T22:18:22.443Z,15.83
2019-05-10T22:20:52.084Z,16.57
2019-05-10T22:23:21.768Z,14.90
2019-05-10T22:25:51.415Z,20.10
2019-05-10T22:28:21.059Z,16.93
2019-05-10T22:30:50.731Z,19.00
2019-05-10T22:33:20.350Z,17.82
2019-05-10T22:35:49.911Z,15.18
2019-05-10T22:38:19.592Z,17.23
2019-05-10T22:40:49.125Z,18.48
2019-05-10T22:43:18.680Z,17.40
2019-05-10T22:45:48.159Z,18.60
2019-05-10T22:48:17.732Z,17.30
2019-05-10T22:50:47.263Z,47.62
2019-05-10T22:53:16.807Z,21.48
2019-05-10T22:55:46.312Z,19.05
2019-05-10T22:58:41.893Z,17.55
2019-05-10T23:01:11.871Z,17.50
2019-05-10T23:03:45.486Z,17.50
2019-05-10T23:06:17.752Z,18.00
2019-05-10T23:08:49.399Z,19.87
2019-05-10T23:11:19.406Z,22.10
2019-05-10T23:13:55.767Z,20.75
2019-05-10T23:16:27.838Z,18.62
2019-05-10T23:19:16.414Z,19.52
2019-05-10T23:21:46.055Z,17.52
2019-05-10T23:24:17.562Z,21.80
2019-05-10T23:26:47.358Z,19.52
2019-05-10T23:29:17.795Z,15.48
2019-05-10T23:31:47.986Z,18.57
2019-05-10T23:34:18.155Z,18.37
2019-05-10T23:36:47.747Z,18.10
2019-05-10T23:39:40.195Z,24.47
2019-05-10T23:42:00.506Z,20.35
2019-05-10T23:44:30.135Z,19.35
2019-05-10T23:47:08.776Z,17.55
2019-05-10T23:49:41.983Z,26.55
2019-05-10T23:52:11.593Z,20.92
2019-05-10T23:54:42.797Z,21.73
2019-05-10T23:57:14.496Z,27.62
2019-05-10T23:59:46.747Z,25.35
